createdAt,value
2019-01-18T00:00:37.353Z,2.70
2019-01-18T00:03:09.475Z,2.80
2019-01-18T00:05:41.939Z,2.70
2019-01-18T00:08:14.335Z,2.70
2019-01-18T00:10:46.799Z,2.50
2019-01-18T00:13:18.967Z,2.50
2019-01-18T00:15:51.231Z,2.50
2019-01-18T00:18:23.515Z,2.50
2019-01-18T00:20:55.777Z,2.40
2019-01-18T00:23:28.756Z,2.30
2019-01-18T00:26:00.925Z,2.30
2019-01-18T00:28:33.110Z,2.20
2019-01-18T00:31:05.665Z,2.10
2019-01-18T00:33:38.783Z,2.10
2019-01-18T00:36:11.026Z,2.10
2019-01-18T00:38:43.265Z,2.10
2019-01-18T00:41:15.355Z,2.20
2019-01-18T00:43:47.463Z,2.30
2019-01-18T00:46:19.925Z,2.20
2019-01-18T00:48:52.155Z,2.20
2019-01-18T00:51:24.243Z,2.30
2019-01-18T00:53:56.387Z,2.20
2019-01-18T00:56:28.717Z,2.30
2019-01-18T00:59:00.852Z,2.30
2019-01-18T01:01:33.149Z,2.30
2019-01-18T01:04:05.375Z,2.10
2019-01-18T01:06:37.825Z,2.20
2019-01-18T01:09:09.930Z,2.20
2019-01-18T01:11:42.121Z,2.20
2019-01-18T01:14:14.221Z,2.00
2019-01-18T01:16:46.599Z,2.00
2019-01-18T01:19:19.139Z,2.00
2019-01-18T01:21:51.573Z,2.00
2019-01-18T01:24:23.874Z,2.10
2019-01-18T01:26:56.128Z,2.00
2019-01-18T01:29:28.513Z,2.00
2019-01-18T01:32:01.016Z,1.90
2019-01-18T01:34:33.275Z,1.90
2019-01-18T01:37:05.510Z,1.70
2019-01-18T01:39:37.768Z,1.50
2019-01-18T01:42:09.913Z,1.50
2019-01-18T01:44:42.193Z,1.50
2019-01-18T01:47:14.404Z,1.60
2019-01-18T01:49:46.652Z,1.50
2019-01-18T01:52:18.761Z,1.40
2019-01-18T01:54:51.266Z,1.30
2019-01-18T01:57:23.788Z,1.30
2019-01-18T01:59:55.887Z,1.30
2019-01-18T02:02:28.261Z,1.20
2019-01-18T02:05:00.662Z,1.10
2019-01-18T02:07:32.993Z,1.00
2019-01-18T02:10:06.466Z,1.00
2019-01-18T02:12:38.715Z,1.00
2019-01-18T02:15:13.432Z,1.00
2019-01-18T02:17:45.714Z,1.10
2019-01-18T02:20:19.138Z,1.10
2019-01-18T02:22:51.609Z,1.00
2019-01-18T02:25:23.818Z,0.90
2019-01-18T02:27:56.064Z,1.10
2019-01-18T02:30:28.574Z,1.20
2019-01-18T02:33:00.605Z,1.20
2019-01-18T02:35:32.903Z,1.10
2019-01-18T02:38:05.126Z,0.80
2019-01-18T02:40:37.209Z,0.70
2019-01-18T02:43:09.241Z,0.60
2019-01-18T02:45:41.309Z,0.60
2019-01-18T02:48:13.452Z,0.70
2019-01-18T02:50:45.537Z,0.80
2019-01-18T02:53:17.666Z,0.90
2019-01-18T02:55:49.779Z,0.90
2019-01-18T02:58:21.978Z,0.80
2019-01-18T03:00:54.201Z,0.70
2019-01-18T03:03:26.302Z,0.60
2019-01-18T03:05:58.505Z,0.60
2019-01-18T03:08:30.743Z,0.70
2019-01-18T03:11:02.973Z,0.90
2019-01-18T03:13:35.321Z,0.80
2019-01-18T03:16:07.617Z,0.80
2019-01-18T03:18:39.858Z,0.80
2019-01-18T03:21:11.844Z,0.90
2019-01-18T03:23:43.957Z,0.70
2019-01-18T03:26:16.269Z,0.70
2019-01-18T03:28:48.355Z,0.60
2019-01-18T03:31:20.451Z,0.60
2019-01-18T03:33:52.554Z,0.60
2019-01-18T03:36:24.786Z,0.60
2019-01-18T03:38:56.805Z,0.60
2019-01-18T03:41:28.804Z,0.60
2019-01-18T03:44:01.055Z,0.70
2019-01-18T03:46:33.515Z,0.70
2019-01-18T03:49:05.893Z,0.80
2019-01-18T03:51:38.139Z,0.70
2019-01-18T03:54:10.800Z,0.70
2019-01-18T03:56:43.000Z,0.80
2019-01-18T03:59:15.096Z,0.80
2019-01-18T04:01:47.497Z,0.70
2019-01-18T04:04:19.731Z,0.80
2019-01-18T04:06:51.836Z,0.80
2019-01-18T04:09:24.251Z,0.70
2019-01-18T04:11:56.644Z,0.70
2019-01-18T04:14:28.636Z,0.80
2019-01-18T04:17:00.600Z,0.80
2019-01-18T04:19:32.815Z,0.90
2019-01-18T04:22:05.000Z,0.90
2019-01-18T04:24:37.067Z,1.00
2019-01-18T04:27:09.261Z,1.10
2019-01-18T04:29:41.793Z,1.10
2019-01-18T04:32:13.992Z,0.90
2019-01-18T04:34:46.038Z,0.90
2019-01-18T04:37:18.239Z,0.90
2019-01-18T04:39:50.540Z,1.00
2019-01-18T04:42:22.663Z,0.90
2019-01-18T04:44:54.784Z,1.00
2019-01-18T04:47:26.890Z,1.00
2019-01-18T04:49:59.020Z,1.00
2019-01-18T04:52:31.135Z,0.90
2019-01-18T04:55:06.016Z,0.80
2019-01-18T04:57:38.012Z,0.80
2019-01-18T05:00:19.028Z,0.80
2019-01-18T05:02:51.323Z,0.70
2019-01-18T05:05:24.203Z,0.70
2019-01-18T05:07:56.288Z,0.80
2019-01-18T05:10:28.720Z,0.80
2019-01-18T05:13:01.066Z,0.70
2019-01-18T05:15:33.233Z,0.70
2019-01-18T05:18:05.391Z,0.70
2019-01-18T05:20:37.873Z,0.70
2019-01-18T05:23:10.358Z,0.60
2019-01-18T05:25:42.499Z,0.60
2019-01-18T05:28:14.490Z,0.60
2019-01-18T05:30:47.750Z,0.60
2019-01-18T05:33:20.036Z,0.80
2019-01-18T05:35:52.148Z,0.70
2019-01-18T05:38:24.299Z,0.80
2019-01-18T05:40:56.512Z,0.80
2019-01-18T05:43:28.497Z,0.70
2019-01-18T05:46:00.699Z,0.70
2019-01-18T05:48:32.945Z,0.60
2019-01-18T05:51:05.185Z,0.60
2019-01-18T05:53:37.471Z,0.60
2019-01-18T05:56:09.772Z,0.60
2019-01-18T05:58:42.079Z,0.70
2019-01-18T06:01:14.902Z,0.60
2019-01-18T06:03:47.127Z,0.60
2019-01-18T06:06:19.528Z,0.80
2019-01-18T06:08:51.773Z,0.80
2019-01-18T06:11:23.910Z,0.50
2019-01-18T06:13:56.135Z,0.60
2019-01-18T06:16:28.630Z,0.70
2019-01-18T06:19:00.817Z,0.60
2019-01-18T06:21:33.004Z,0.70
2019-01-18T06:24:05.235Z,0.80
2019-01-18T06:26:37.490Z,0.70
2019-01-18T06:29:09.688Z,0.70
2019-01-18T06:31:42.161Z,0.60
2019-01-18T06:34:14.392Z,0.50
2019-01-18T06:36:46.375Z,0.50
2019-01-18T06:39:18.605Z,0.50
2019-01-18T06:41:52.171Z,0.40
2019-01-18T06:44:24.405Z,0.30
2019-01-18T06:46:56.453Z,0.30
2019-01-18T06:49:28.523Z,0.30
2019-01-18T06:52:00.744Z,0.20
2019-01-18T06:54:32.958Z,0.20
2019-01-18T06:57:05.148Z,0.20
2019-01-18T06:59:37.293Z,0.20
2019-01-18T07:02:09.504Z,0.40
2019-01-18T07:04:42.401Z,0.30
2019-01-18T07:07:14.682Z,0.30
2019-01-18T07:09:47.277Z,0.20
2019-01-18T07:12:19.389Z,0.10
2019-01-18T07:14:51.701Z,0.20
2019-01-18T07:17:24.107Z,0.30
2019-01-18T07:19:57.086Z,0.30
2019-01-18T07:22:29.509Z,0.20
2019-01-18T07:25:01.999Z,0.30
2019-01-18T07:27:34.108Z,0.40
2019-01-18T07:30:10.342Z,0.30
2019-01-18T07:32:42.466Z,0.20
2019-01-18T07:35:15.458Z,0.20
2019-01-18T07:37:47.633Z,0.30
2019-01-18T07:40:19.841Z,0.20
2019-01-18T07:42:52.201Z,0.30
2019-01-18T07:45:25.934Z,0.20
2019-01-18T07:47:58.224Z,0.30
2019-01-18T07:50:30.372Z,0.30
2019-01-18T07:53:02.947Z,0.20
2019-01-18T07:55:35.218Z,0.00
2019-01-18T07:58:07.721Z,0.00
2019-01-18T08:00:39.943Z,0.10
2019-01-18T08:03:12.415Z,0.20
2019-01-18T08:05:44.857Z,0.20
2019-01-18T08:08:17.081Z,0.20
2019-01-18T08:10:49.284Z,0.20
2019-01-18T08:13:21.688Z,0.20
2019-01-18T08:15:53.920Z,0.20
2019-01-18T08:18:26.676Z,0.20
2019-01-18T08:20:58.996Z,0.10
2019-01-18T08:23:31.435Z,0.00
2019-01-18T08:26:03.939Z,0.00
2019-01-18T08:28:36.088Z,0.10
2019-01-18T08:31:32.970Z,0.10
2019-01-18T08:34:04.988Z,0.00
2019-01-18T08:36:37.214Z,0.00
2019-01-18T08:39:09.305Z,0.10
2019-01-18T08:41:41.501Z,0.00
2019-01-18T08:44:13.505Z,-0.10
2019-01-18T08:46:45.921Z,0.00
2019-01-18T08:49:18.133Z,-0.10
2019-01-18T08:51:50.664Z,-0.10
2019-01-18T08:54:22.853Z,-0.10
2019-01-18T08:56:56.452Z,0.00
2019-01-18T08:59:28.719Z,0.10
2019-01-18T09:02:00.914Z,0.00
2019-01-18T09:04:33.159Z,0.10
2019-01-18T09:07:05.409Z,0.10
2019-01-18T09:09:37.577Z,0.10
2019-01-18T09:12:09.820Z,0.10
2019-01-18T09:14:42.332Z,0.20
2019-01-18T09:17:14.581Z,0.20
2019-01-18T09:19:46.829Z,0.20
2019-01-18T09:22:19.323Z,0.40
2019-01-18T09:24:51.495Z,0.50
2019-01-18T09:27:23.776Z,0.40
2019-01-18T09:29:56.450Z,0.40
2019-01-18T09:32:28.681Z,0.40
2019-01-18T09:35:00.990Z,0.50
2019-01-18T09:37:33.908Z,0.50
2019-01-18T09:40:09.837Z,0.60
2019-01-18T09:42:42.072Z,0.50
2019-01-18T09:45:14.595Z,0.50
2019-01-18T09:47:46.908Z,0.60
2019-01-18T09:50:21.097Z,0.60
2019-01-18T09:52:53.785Z,0.70
2019-01-18T09:55:26.139Z,0.70
2019-01-18T09:57:58.959Z,0.70
2019-01-18T10:00:33.186Z,0.80
2019-01-18T10:03:05.924Z,0.80
2019-01-18T10:05:38.221Z,0.90
2019-01-18T10:08:11.240Z,0.90
2019-01-18T10:10:43.439Z,0.90
2019-01-18T10:13:15.845Z,1.00
2019-01-18T10:15:48.342Z,1.00
2019-01-18T10:18:20.786Z,1.10
2019-01-18T10:20:53.018Z,1.20
2019-01-18T10:23:25.549Z,1.20
2019-01-18T10:25:57.674Z,1.30
2019-01-18T10:28:30.006Z,1.20
2019-01-18T10:31:02.225Z,1.30
2019-01-18T10:33:35.257Z,1.40
2019-01-18T10:36:08.660Z,1.40
2019-01-18T10:38:42.097Z,1.40
2019-01-18T10:41:14.224Z,1.30
2019-01-18T10:43:46.496Z,1.40
2019-01-18T10:46:18.774Z,1.60
2019-01-18T10:48:51.136Z,1.50
2019-01-18T10:51:23.499Z,1.60
2019-01-18T10:53:55.780Z,1.60
2019-01-18T10:56:28.264Z,1.60
2019-01-18T10:59:00.593Z,1.60
2019-01-18T11:01:34.002Z,1.40
2019-01-18T11:04:06.248Z,1.50
2019-01-18T11:06:38.701Z,1.50
2019-01-18T11:09:10.921Z,1.60
2019-01-18T11:11:43.166Z,1.70
2019-01-18T11:14:15.577Z,1.60
2019-01-18T11:19:20.101Z,1.80
2019-01-18T11:21:52.226Z,1.80
2019-01-18T11:24:24.306Z,1.80
2019-01-18T11:26:57.644Z,1.90
2019-01-18T11:29:30.423Z,1.90
2019-01-18T11:32:02.716Z,1.90
2019-01-18T11:34:35.068Z,2.10
2019-01-18T11:37:08.041Z,2.00
2019-01-18T11:39:40.438Z,2.20
2019-01-18T11:42:12.791Z,2.20
2019-01-18T11:44:44.962Z,2.10
2019-01-18T11:47:17.112Z,2.10
2019-01-18T11:49:49.604Z,2.00
2019-01-18T11:52:21.823Z,2.20
2019-01-18T11:54:54.056Z,2.10
2019-01-18T11:57:26.192Z,2.00
2019-01-18T11:59:58.553Z,2.00
2019-01-18T12:02:31.032Z,2.10
2019-01-18T12:05:03.794Z,2.10
2019-01-18T12:07:37.090Z,2.10
2019-01-18T12:10:12.315Z,2.20
2019-01-18T12:12:44.823Z,2.20
2019-01-18T12:15:17.501Z,2.20
2019-01-18T12:17:49.855Z,2.10
2019-01-18T12:20:24.872Z,2.20
2019-01-18T12:22:57.564Z,2.40
2019-01-18T12:25:29.790Z,2.40
2019-01-18T12:28:02.388Z,2.20
2019-01-18T12:30:35.362Z,2.40
2019-01-18T12:33:07.631Z,2.30
2019-01-18T12:35:39.874Z,2.40
2019-01-18T12:38:12.244Z,2.40
2019-01-18T12:40:44.547Z,2.40
2019-01-18T12:43:17.051Z,2.30
2019-01-18T12:45:49.292Z,2.40
2019-01-18T12:48:21.521Z,2.40
2019-01-18T12:50:54.479Z,2.50
2019-01-18T12:53:27.196Z,2.50
2019-01-18T12:55:59.597Z,2.50
2019-01-18T12:58:31.800Z,2.60
2019-01-18T13:01:04.210Z,2.70
2019-01-18T13:03:36.444Z,2.60
2019-01-18T13:06:08.744Z,2.50
2019-01-18T13:08:41.113Z,2.50
2019-01-18T13:11:13.325Z,2.40
2019-01-18T13:13:45.353Z,2.50
2019-01-18T13:16:21.052Z,2.40
2019-01-18T13:18:56.038Z,2.50
2019-01-18T13:21:28.316Z,2.70
2019-01-18T13:24:00.735Z,2.60
2019-01-18T13:26:32.943Z,2.50
2019-01-18T13:29:05.455Z,2.50
2019-01-18T13:31:37.708Z,2.50
2019-01-18T13:34:10.084Z,2.50
2019-01-18T13:36:42.331Z,2.80
2019-01-18T13:39:14.562Z,2.60
2019-01-18T13:41:47.035Z,2.60
2019-01-18T13:44:19.293Z,2.50
2019-01-18T13:46:51.475Z,2.50
2019-01-18T13:49:24.109Z,2.50
2019-01-18T13:51:56.308Z,2.50
2019-01-18T13:54:28.748Z,2.50
2019-01-18T13:57:01.085Z,2.60
2019-01-18T13:59:33.485Z,2.70
2019-01-18T14:02:07.565Z,2.60
2019-01-18T14:04:40.168Z,2.60
2019-01-18T14:07:13.001Z,2.40
2019-01-18T14:09:45.257Z,2.40
2019-01-18T14:12:17.638Z,2.40
2019-01-18T14:14:50.144Z,2.60
2019-01-18T14:17:22.537Z,2.60
2019-01-18T14:19:54.956Z,2.60
2019-01-18T14:22:27.227Z,2.70
2019-01-18T14:24:59.205Z,2.70
2019-01-18T14:27:31.709Z,2.60
2019-01-18T14:30:07.053Z,2.60
2019-01-18T14:32:39.316Z,2.40
2019-01-18T14:35:12.339Z,2.50
2019-01-18T14:37:44.578Z,2.40
2019-01-18T14:40:16.850Z,2.40
2019-01-18T14:42:49.317Z,2.50
2019-01-18T14:45:24.328Z,2.70
2019-01-18T14:47:56.545Z,2.60
2019-01-18T14:50:29.218Z,2.50
2019-01-18T14:53:01.714Z,2.50
2019-01-18T14:55:34.342Z,2.40
2019-01-18T14:58:08.650Z,2.40
2019-01-18T15:00:41.004Z,2.40
2019-01-18T15:03:15.044Z,2.50
2019-01-18T15:05:47.355Z,2.50
2019-01-18T15:08:24.223Z,2.40
2019-01-18T15:10:54.182Z,2.40
2019-01-18T15:13:26.273Z,2.40
2019-01-18T15:15:58.955Z,2.40
2019-01-18T15:18:31.153Z,2.50
2019-01-18T15:21:03.786Z,2.70
2019-01-18T15:23:36.070Z,2.70
2019-01-18T15:26:08.409Z,2.70
2019-01-18T15:28:40.392Z,2.80
2019-01-18T15:31:12.709Z,2.70
2019-01-18T15:33:44.915Z,2.60
2019-01-18T15:36:17.215Z,2.70
2019-01-18T15:38:49.839Z,2.50
2019-01-18T15:41:22.235Z,2.50
2019-01-18T15:43:54.858Z,2.60
2019-01-18T15:46:27.132Z,2.60
2019-01-18T15:48:59.389Z,2.50
2019-01-18T15:51:33.172Z,2.70
2019-01-18T15:54:05.344Z,2.70
2019-01-18T15:56:38.477Z,2.60
2019-01-18T15:59:10.896Z,2.70
2019-01-18T16:01:43.221Z,2.70
2019-01-18T16:04:18.247Z,2.70
2019-01-18T16:06:50.718Z,2.80
2019-01-18T16:09:22.937Z,3.00
2019-01-18T16:11:56.093Z,3.10
2019-01-18T16:14:28.202Z,2.90
2019-01-18T16:17:05.807Z,3.10
2019-01-18T16:19:37.954Z,3.00
2019-01-18T16:22:10.610Z,3.10
2019-01-18T16:24:42.816Z,3.00
2019-01-18T16:27:15.628Z,2.90
2019-01-18T16:29:47.859Z,2.80
2019-01-18T16:32:20.220Z,2.70
2019-01-18T16:34:52.219Z,2.90
2019-01-18T16:37:24.984Z,3.00
2019-01-18T16:39:57.090Z,2.80
2019-01-18T16:42:30.023Z,2.70
2019-01-18T16:45:02.280Z,2.60
2019-01-18T16:47:34.937Z,2.70
2019-01-18T16:50:08.552Z,2.50
2019-01-18T16:52:40.844Z,2.60
2019-01-18T16:55:14.010Z,2.70
2019-01-18T16:57:46.539Z,2.70
2019-01-18T17:00:24.581Z,2.80
2019-01-18T17:02:57.416Z,2.70
2019-01-18T17:05:31.029Z,2.70
2019-01-18T17:08:04.477Z,2.60
2019-01-18T17:10:36.975Z,2.60
2019-01-18T17:13:09.282Z,2.60
2019-01-18T17:15:41.534Z,2.70
2019-01-18T17:18:14.281Z,2.60
2019-01-18T17:20:46.568Z,2.70
2019-01-18T17:23:19.684Z,2.80
2019-01-18T17:25:52.081Z,2.40
2019-01-18T17:28:24.304Z,2.30
2019-01-18T17:30:56.432Z,2.20
2019-01-18T17:33:28.448Z,2.10
2019-01-18T17:36:21.304Z,1.90
2019-01-18T17:39:17.258Z,1.90
2019-01-18T17:42:26.691Z,2.20
2019-01-18T17:45:39.334Z,2.20
2019-01-18T17:49:08.501Z,2.20
2019-01-18T17:52:29.192Z,2.10
2019-01-18T17:55:19.967Z,2.00
2019-01-18T17:58:41.026Z,1.90
2019-01-18T18:01:59.940Z,2.10
2019-01-18T18:05:04.349Z,2.20
2019-01-18T18:08:04.735Z,2.30
2019-01-18T18:11:15.060Z,2.10
2019-01-18T18:14:15.439Z,2.30
2019-01-18T18:17:19.141Z,2.20
2019-01-18T18:20:17.398Z,2.30
2019-01-18T18:23:22.263Z,2.30
2019-01-18T18:26:30.724Z,2.30
2019-01-18T18:29:17.724Z,2.50
2019-01-18T18:32:35.108Z,2.50
2019-01-18T18:35:43.324Z,2.50
2019-01-18T18:38:49.279Z,2.50
2019-01-18T18:42:02.003Z,2.70
2019-01-18T18:45:10.443Z,2.50
2019-01-18T18:48:12.116Z,2.40
2019-01-18T18:50:55.451Z,2.40
2019-01-18T18:53:53.656Z,2.40
2019-01-18T18:57:03.274Z,2.30
2019-01-18T19:00:01.920Z,2.30
2019-01-18T19:02:51.595Z,2.30
2019-01-18T19:06:01.460Z,2.40
2019-01-18T19:09:17.249Z,2.40
2019-01-18T19:12:40.726Z,2.40
2019-01-18T19:15:38.672Z,2.40
2019-01-18T19:18:27.306Z,2.40
2019-01-18T19:21:39.411Z,2.40
2019-01-18T19:24:48.277Z,2.60
2019-01-18T19:27:52.690Z,2.50
2019-01-18T19:31:01.003Z,2.60
2019-01-18T19:34:04.379Z,2.70
2019-01-18T19:37:15.056Z,2.80
2019-01-18T19:40:35.230Z,2.70
2019-01-18T19:43:45.232Z,2.70
2019-01-18T19:46:46.532Z,2.70
2019-01-18T19:49:49.107Z,2.70
2019-01-18T19:53:27.364Z,2.70
2019-01-18T19:56:06.170Z,2.70
2019-01-18T19:59:31.304Z,2.70
2019-01-18T20:02:54.411Z,2.90
2019-01-18T20:05:40.602Z,2.90
2019-01-18T20:08:45.012Z,3.00
2019-01-18T20:11:45.089Z,2.70
2019-01-18T20:14:27.999Z,2.60
2019-01-18T20:17:35.939Z,2.50
2019-01-18T20:20:38.848Z,2.60
2019-01-18T20:23:55.812Z,2.60
2019-01-18T20:27:13.055Z,2.60
2019-01-18T20:30:32.878Z,2.70
2019-01-18T20:33:41.399Z,2.70
2019-01-18T20:36:49.173Z,2.60
2019-01-18T20:39:43.284Z,2.70
2019-01-18T20:42:48.516Z,2.70
2019-01-18T20:46:32.832Z,2.80
2019-01-18T20:49:37.561Z,2.80
2019-01-18T20:52:23.468Z,2.80
2019-01-18T20:55:39.176Z,2.70
2019-01-18T20:58:40.115Z,2.60
2019-01-18T21:02:02.289Z,2.70
2019-01-18T21:05:08.815Z,2.60
2019-01-18T21:07:51.962Z,2.80
2019-01-18T21:11:08.079Z,2.80
2019-01-18T21:14:42.861Z,2.70
2019-01-18T21:17:35.889Z,2.60
2019-01-18T21:20:34.586Z,2.50
2019-01-18T21:23:48.667Z,2.50
2019-01-18T21:26:49.425Z,2.60
2019-01-18T21:29:46.692Z,2.60
2019-01-18T21:33:04.003Z,2.40
2019-01-18T21:36:29.663Z,2.50
2019-01-18T21:39:20.776Z,2.40
2019-01-18T21:42:32.071Z,2.40
2019-01-18T21:45:54.420Z,2.30
2019-01-18T21:48:51.285Z,2.30
2019-01-18T21:51:51.396Z,2.40
2019-01-18T21:55:20.576Z,2.30
2019-01-18T21:58:24.816Z,2.50
2019-01-18T22:01:13.734Z,2.30
2019-01-18T22:04:21.588Z,2.30
2019-01-18T22:07:18.399Z,2.30
2019-01-18T22:10:27.952Z,2.30
2019-01-18T22:13:31.044Z,2.20
2019-01-18T22:16:45.636Z,2.40
2019-01-18T22:20:14.066Z,2.30
2019-01-18T22:23:12.981Z,2.30
2019-01-18T22:26:35.584Z,2.30
2019-01-18T22:29:43.066Z,2.30
2019-01-18T22:32:51.943Z,2.20
2019-01-18T22:36:07.724Z,2.30
2019-01-18T22:39:08.834Z,2.20
2019-01-18T22:42:10.522Z,2.30
2019-01-18T22:45:36.611Z,2.30
2019-01-18T22:48:47.692Z,2.30
2019-01-18T22:51:59.922Z,2.30
2019-01-18T22:55:17.099Z,2.30
2019-01-18T22:58:28.704Z,2.30
2019-01-18T23:01:48.368Z,2.50
2019-01-18T23:04:37.928Z,2.40
2019-01-18T23:07:47.414Z,2.40
2019-01-18T23:10:43.072Z,2.30
2019-01-18T23:13:55.244Z,2.20
2019-01-18T23:17:04.580Z,2.20
2019-01-18T23:20:14.554Z,2.10
2019-01-18T23:23:28.424Z,2.20
2019-01-18T23:26:24.636Z,2.20
2019-01-18T23:29:13.667Z,2.10
2019-01-18T23:32:41.513Z,2.10
2019-01-18T23:35:51.426Z,2.20
2019-01-18T23:39:29.279Z,2.10
2019-01-18T23:42:38.365Z,2.30
2019-01-18T23:45:26.568Z,2.50
2019-01-18T23:48:51.598Z,2.20
2019-01-18T23:52:04.978Z,2.00
2019-01-18T23:55:15.284Z,2.10
2019-01-18T23:58:36.660Z,2.00
